Time;durP1;ratioP1;P1;durP2;ratioP2;P2;SDS_P1;SDS_P2;PMS_P1;PMS_P2;Temp;Humidity;BMP_temperature;BMP_pressure;BME280_temperature;BME280_humidity;BME280_pressure;Samples;Min_cycle;Max_cycle;Signal;HPM_P1;HPM_P2
2024/03/11 00:00:57;;;;;;;;;;;;;;;;;;5092538;28;19990;-40
2024/03/11 00:03:27;;;;;;;9.52;1.75;;;;;;;;;;5077695;28;19953;-40
2024/03/11 00:05:55;;;;;;;6.88;1.92;;;;;;;;;;5081735;28;20078;-39
2024/03/11 00:08:23;;;;;;;9.63;2.08;;;;;;;;;;5068447;28;20490;-39
2024/03/11 00:10:55;;;;;;;8.98;1.70;;;;;;;;;;5080144;28;20024;-39
2024/03/11 00:13:22;;;;;;;10.55;1.73;;;;;;;;;;5090259;28;20032;-39
2024/03/11 00:15:53;;;;;;;10.18;1.65;;;;;;;;;;5088636;28;20056;-39
2024/03/11 00:18:20;;;;;;;9.20;2.00;;;;;;;;;;5090048;28;20419;-38
2024/03/11 00:20:47;;;;;;;10.07;2.30;;;;;;;;;;5089591;28;20031;-39
2024/03/11 00:23:15;;;;;;;15.10;2.10;;;;;;;;;;5071610;28;20032;-39
2024/03/11 00:25:43;;;;;;;13.23;2.13;;;;;;;;;;5086834;28;20016;-40
2024/03/11 00:28:11;;;;;;;12.13;3.05;;;;;;;;;;5090301;28;20468;-40
2024/03/11 00:30:38;;;;;;;11.57;2.05;;;;;;;;;;5086227;28;20063;-38
2024/03/11 00:33:09;;;;;;;8.45;2.20;;;;;;;;;;5088335;28;20095;-40
2024/03/11 00:35:36;;;;;;;17.73;2.47;;;;;;;;;;5083615;28;20040;-38
2024/03/11 00:38:03;;;;;;;12.57;1.90;;;;;;;;;;5082773;28;20085;-40
2024/03/11 00:40:30;;;;;;;17.73;2.78;;;;;;;;;;5084881;28;20043;-39
2024/03/11 00:42:57;;;;;;;9.43;2.17;;;;;;;;;;5067713;28;20077;-39
2024/03/11 00:45:24;;;;;;;11.95;1.70;;;;;;;;;;5072080;28;20119;-40
2024/03/11 00:47:52;;;;;;;9.55;2.03;;;;;;;;;;5076225;28;20040;-39
2024/03/11 00:50:21;;;;;;;8.95;2.10;;;;;;;;;;5080174;28;20032;-41
2024/03/11 00:52:51;;;;;;;6.07;1.90;;;;;;;;;;5093745;28;20076;-39
2024/03/11 00:55:18;;;;;;;12.13;2.08;;;;;;;;;;5082658;28;20040;-40
2024/03/11 00:57:48;;;;;;;10.45;2.15;;;;;;;;;;5089541;28;20042;-40
2024/03/11 01:00:22;;;;;;;10.20;2.03;;;;;;;;;;5080769;28;20048;-40
2024/03/11 01:02:51;;;;;;;12.43;2.25;;;;;;;;;;5079190;28;20056;-43
2024/03/11 01:05:19;;;;;;;13.15;2.80;;;;;;;;;;5083632;28;20104;-40
2024/03/11 01:07:46;;;;;;;12.32;2.00;;;;;;;;;;5077440;28;20032;-39
2024/03/11 01:10:15;;;;;;;16.45;2.03;;;;;;;;;;5087049;28;20039;-41
2024/03/11 01:12:42;;;;;;;11.60;2.38;;;;;;;;;;5086230;28;20394;-39
2024/03/11 01:15:12;;;;;;;13.40;2.47;;;;;;;;;;5091291;28;20032;-41
2024/03/11 01:17:40;;;;;;;11.35;2.10;;;;;;;;;;5100740;28;20036;-40
2024/03/11 01:20:13;;;;;;;13.65;2.30;;;;;;;;;;5093607;28;20032;-39
2024/03/11 01:22:40;;;;;;;8.57;1.70;;;;;;;;;;5093576;28;20047;-40
2024/03/11 01:25:08;;;;;;;8.65;1.85;;;;;;;;;;5093641;28;20031;-38
2024/03/11 01:27:36;;;;;;;8.95;2.08;;;;;;;;;;5075646;28;20127;-40
2024/03/11 01:30:03;;;;;;;9.45;1.83;;;;;;;;;;5093118;28;20028;-40
2024/03/11 01:32:31;;;;;;;6.38;2.03;;;;;;;;;;5085346;28;20493;-40
2024/03/11 01:34:58;;;;;;;11.70;1.80;;;;;;;;;;5083884;28;20035;-40
2024/03/11 01:37:25;;;;;;;10.85;2.13;;;;;;;;;;5083917;28;20358;-40
2024/03/11 01:39:52;;;;;;;14.18;2.30;;;;;;;;;;5082555;28;20047;-39
2024/03/11 01:42:19;;;;;;;18.05;2.35;;;;;;;;;;5083104;28;20028;-39
2024/03/11 01:44:50;;;;;;;7.68;2.25;;;;;;;;;;5064422;28;20086;-39
2024/03/11 01:47:19;;;;;;;15.20;2.20;;;;;;;;;;5082001;28;20135;-40
2024/03/11 01:49:47;;;;;;;5.72;1.52;;;;;;;;;;5081560;28;20024;-39
2024/03/11 01:52:18;;;;;;;9.10;1.70;;;;;;;;;;5064332;28;20035;-41
2024/03/11 01:54:46;;;;;;;9.83;2.37;;;;;;;;;;5081780;28;20090;-40
2024/03/11 01:57:15;;;;;;;10.00;2.35;;;;;;;;;;5064363;28;20278;-39
2024/03/11 01:59:43;;;;;;;5.47;1.77;;;;;;;;;;5079218;28;20047;-40
2024/03/11 02:02:10;;;;;;;9.20;1.88;;;;;;;;;;5061993;28;20075;-39
2024/03/11 02:04:38;;;;;;;9.05;2.08;;;;;;;;;;5043758;28;20038;-40
2024/03/11 02:07:06;;;;;;;10.88;2.08;;;;;;;;;;5060424;28;20095;-39
2024/03/11 02:09:34;;;;;;;11.82;2.15;;;;;;;;;;5061766;28;20040;-38
2024/03/11 02:12:01;;;;;;;8.48;2.15;;;;;;;;;;5061263;28;20394;-38
2024/03/11 02:14:28;;;;;;;7.40;2.03;;;;;;;;;;5061823;28;20033;-37
2024/03/11 02:16:58;;;;;;;5.80;1.80;;;;;;;;;;5063048;28;20043;-39
2024/03/11 02:19:26;;;;;;;8.77;2.33;;;;;;;;;;5067628;28;20052;-40
2024/03/11 02:21:53;;;;;;;7.53;2.05;;;;;;;;;;5059455;28;20778;-38
2024/03/11 02:24:20;;;;;;;8.35;1.90;;;;;;;;;;5061191;28;20028;-40
2024/03/11 02:26:50;;;;;;;9.68;2.10;;;;;;;;;;5072061;28;20143;-40
2024/03/11 02:29:17;;;;;;;5.38;1.65;;;;;;;;;;5045333;28;20044;-39
2024/03/11 02:31:45;;;;;;;6.65;1.90;;;;;;;;;;5069163;28;20040;-37
2024/03/11 02:34:12;;;;;;;4.68;1.85;;;;;;;;;;5051651;28;20228;-37
2024/03/11 02:36:43;;;;;;;7.03;1.83;;;;;;;;;;5034044;28;20032;-38
2024/03/11 02:39:10;;;;;;;6.53;1.90;;;;;;;;;;5052012;28;20513;-38
2024/03/11 02:41:37;;;;;;;4.95;1.70;;;;;;;;;;5052166;28;20033;-38
2024/03/11 02:44:05;;;;;;;5.80;2.00;;;;;;;;;;5051948;28;20052;-38
2024/03/11 02:46:32;;;;;;;6.30;2.15;;;;;;;;;;5052453;28;20100;-40
2024/03/11 02:48:59;;;;;;;6.38;1.52;;;;;;;;;;5071540;28;20074;-40
2024/03/11 02:51:26;;;;;;;6.25;2.20;;;;;;;;;;5071950;28;20021;-39
2024/03/11 02:53:53;;;;;;;5.63;1.60;;;;;;;;;;5071888;28;20021;-39
2024/03/11 02:56:20;;;;;;;7.40;1.63;;;;;;;;;;5071805;28;20493;-39
2024/03/11 02:58:47;;;;;;;5.32;1.75;;;;;;;;;;5071623;28;20500;-39
2024/03/11 03:01:14;;;;;;;4.80;1.98;;;;;;;;;;5087577;28;20390;-39
2024/03/11 03:03:42;;;;;;;7.25;1.90;;;;;;;;;;5090744;28;20032;-38
2024/03/11 03:06:09;;;;;;;5.63;1.70;;;;;;;;;;5091657;28;20077;-39
2024/03/11 03:08:36;;;;;;;7.10;1.95;;;;;;;;;;5086034;28;20512;-38
2024/03/11 03:11:03;;;;;;;3.47;1.30;;;;;;;;;;5098601;28;20042;-38
2024/03/11 03:13:30;;;;;;;8.77;2.05;;;;;;;;;;5102118;28;20369;-39
2024/03/11 03:15:57;;;;;;;3.80;1.48;;;;;;;;;;5100802;28;20043;-39
2024/03/11 03:18:24;;;;;;;4.63;1.65;;;;;;;;;;5100279;28;20028;-38
2024/03/11 03:20:51;;;;;;;4.53;1.60;;;;;;;;;;5099271;28;20437;-38
2024/03/11 03:23:18;;;;;;;5.45;2.05;;;;;;;;;;5091595;28;20052;-38
2024/03/11 03:25:45;;;;;;;6.70;1.90;;;;;;;;;;5091433;28;20016;-38
2024/03/11 03:28:12;;;;;;;4.78;1.67;;;;;;;;;;5091607;28;20036;-39
2024/03/11 03:30:39;;;;;;;4.38;1.55;;;;;;;;;;5091202;28;20033;-38
2024/03/11 03:33:06;;;;;;;3.28;1.60;;;;;;;;;;5091415;28;20050;-38
2024/03/11 03:35:33;;;;;;;3.72;1.63;;;;;;;;;;5091465;28;20039;-37
2024/03/11 03:38:00;;;;;;;5.68;1.60;;;;;;;;;;5091451;28;20089;-38
2024/03/11 03:40:28;;;;;;;3.90;1.55;;;;;;;;;;5091323;28;20094;-37
2024/03/11 03:42:55;;;;;;;4.32;1.55;;;;;;;;;;5091171;28;20524;-39
2024/03/11 03:45:22;;;;;;;7.18;1.80;;;;;;;;;;5091410;28;20441;-38
2024/03/11 03:47:49;;;;;;;4.63;1.58;;;;;;;;;;5091405;28;20376;-38
2024/03/11 03:50:17;;;;;;;4.18;1.38;;;;;;;;;;5090786;28;20108;-38
2024/03/11 03:52:44;;;;;;;5.32;1.75;;;;;;;;;;5090585;28;20052;-38
2024/03/11 03:55:11;;;;;;;2.53;1.45;;;;;;;;;;5091215;28;20123;-39
2024/03/11 03:57:39;;;;;;;3.85;1.50;;;;;;;;;;5090988;28;20028;-39
2024/03/11 04:00:20;;;;;;;4.70;1.73;;;;;;;;;;5090965;28;20048;-37
2024/03/11 04:02:48;;;;;;;6.90;1.83;;;;;;;;;;5090641;28;20116;-38
2024/03/11 04:05:16;;;;;;;5.43;1.60;;;;;;;;;;5091254;28;20493;-38
2024/03/11 04:07:44;;;;;;;3.33;1.70;;;;;;;;;;5091192;28;20028;-39
2024/03/11 04:10:17;;;;;;;1.73;1.30;;;;;;;;;;5090978;28;20040;-40
2024/03/11 04:12:52;;;;;;;3.63;1.73;;;;;;;;;;5090638;28;20032;-40
2024/03/11 04:15:21;;;;;;;3.03;1.83;;;;;;;;;;5091184;28;20095;-41
2024/03/11 04:17:48;;;;;;;5.93;1.60;;;;;;;;;;5091003;28;20063;-39
2024/03/11 04:20:16;;;;;;;2.90;1.70;;;;;;;;;;5072730;28;20028;-40
2024/03/11 04:22:49;;;;;;;3.10;1.80;;;;;;;;;;5092596;28;20042;-39
2024/03/11 04:25:17;;;;;;;2.95;1.80;;;;;;;;;;5094822;28;20359;-40
2024/03/11 04:27:45;;;;;;;3.85;1.70;;;;;;;;;;5094775;28;20047;-40
2024/03/11 04:30:16;;;;;;;2.80;1.75;;;;;;;;;;5094628;28;20067;-39
2024/03/11 04:32:43;;;;;;;3.17;1.77;;;;;;;;;;5094558;28;20077;-40
2024/03/11 04:35:11;;;;;;;2.85;1.58;;;;;;;;;;5094390;28;20024;-40
2024/03/11 04:37:38;;;;;;;2.63;1.80;;;;;;;;;;5094360;28;20469;-39
2024/03/11 04:40:07;;;;;;;3.28;1.95;;;;;;;;;;5094773;28;20020;-39
2024/03/11 04:42:34;;;;;;;3.90;1.80;;;;;;;;;;5094452;28;20028;-40
2024/03/11 04:45:01;;;;;;;2.42;1.63;;;;;;;;;;5094709;28;20031;-39
2024/03/11 04:47:28;;;;;;;2.85;1.75;;;;;;;;;;5094466;28;20028;-40
2024/03/11 04:49:55;;;;;;;2.53;1.50;;;;;;;;;;5094374;28;20031;-40
2024/03/11 04:52:22;;;;;;;5.13;1.88;;;;;;;;;;5094555;28;20036;-39
2024/03/11 04:54:49;;;;;;;2.30;1.40;;;;;;;;;;5094389;28;20047;-38
2024/03/11 04:57:17;;;;;;;1.98;1.50;;;;;;;;;;5094554;28;20044;-39
2024/03/11 04:59:44;;;;;;;4.38;1.60;;;;;;;;;;5094014;28;20031;-38
2024/03/11 05:02:11;;;;;;;2.83;1.60;;;;;;;;;;5094351;28;20026;-38
2024/03/11 05:04:38;;;;;;;3.58;1.80;;;;;;;;;;5094087;28;20051;-38
2024/03/11 05:07:05;;;;;;;2.88;1.50;;;;;;;;;;5094331;28;20039;-39
2024/03/11 05:09:32;;;;;;;2.60;1.60;;;;;;;;;;5094011;28;20100;-37
2024/03/11 05:11:59;;;;;;;2.65;1.45;;;;;;;;;;5094212;28;20089;-37
2024/03/11 05:14:26;;;;;;;4.25;1.88;;;;;;;;;;5094383;28;20024;-38
2024/03/11 05:16:56;;;;;;;3.50;1.40;;;;;;;;;;5093346;28;20443;-38
2024/03/11 05:19:23;;;;;;;1.95;1.48;;;;;;;;;;5094097;28;20031;-38
2024/03/11 05:21:51;;;;;;;2.85;1.73;;;;;;;;;;5092904;28;20069;-37
2024/03/11 05:24:18;;;;;;;2.92;1.40;;;;;;;;;;5094091;28;20040;-38
2024/03/11 05:26:45;;;;;;;2.70;1.50;;;;;;;;;;5093787;28;20036;-38
2024/03/11 05:29:13;;;;;;;4.25;1.65;;;;;;;;;;5093646;28;20028;-38
2024/03/11 05:31:40;;;;;;;2.42;1.60;;;;;;;;;;5093843;28;20024;-38
2024/03/11 05:34:07;;;;;;;2.55;1.35;;;;;;;;;;5092742;28;20024;-38
2024/03/11 05:36:34;;;;;;;3.13;1.40;;;;;;;;;;5093633;28;20028;-37
2024/03/11 05:39:01;;;;;;;2.30;1.33;;;;;;;;;;5093585;28;20055;-37
2024/03/11 05:41:28;;;;;;;3.47;1.50;;;;;;;;;;5093513;28;20728;-38
2024/03/11 05:43:55;;;;;;;3.95;1.50;;;;;;;;;;5093591;28;20023;-39
2024/03/11 05:46:22;;;;;;;2.05;1.48;;;;;;;;;;5093466;28;20024;-38
2024/03/11 05:48:49;;;;;;;2.50;1.55;;;;;;;;;;5093133;28;20035;-37
2024/03/11 05:51:17;;;;;;;2.15;1.48;;;;;;;;;;5093333;28;20545;-39
2024/03/11 05:53:45;;;;;;;4.00;1.67;;;;;;;;;;5093331;28;20024;-38
2024/03/11 05:56:19;;;;;;;3.33;1.60;;;;;;;;;;5093313;28;20144;-38
2024/03/11 05:58:46;;;;;;;3.75;1.52;;;;;;;;;;5092862;28;20432;-38
2024/03/11 06:01:13;;;;;;;2.17;1.50;;;;;;;;;;5087617;28;20136;-39
2024/03/11 06:03:40;;;;;;;2.63;1.40;;;;;;;;;;5093052;28;20115;-40
2024/03/11 06:06:07;;;;;;;1.83;1.30;;;;;;;;;;5093256;28;20024;-40
2024/03/11 06:08:35;;;;;;;3.67;1.30;;;;;;;;;;5073306;28;20044;-39
2024/03/11 06:11:02;;;;;;;2.47;1.40;;;;;;;;;;5092676;28;20047;-38
2024/03/11 06:13:31;;;;;;;2.45;1.30;;;;;;;;;;5092999;28;20020;-38
2024/03/11 06:15:58;;;;;;;2.38;1.20;;;;;;;;;;5092878;28;20028;-38
2024/03/11 06:18:25;;;;;;;2.45;1.42;;;;;;;;;;5092923;28;20020;-38
2024/03/11 06:20:52;;;;;;;2.55;1.40;;;;;;;;;;5092815;28;20113;-37
2024/03/11 06:23:18;;;;;;;3.50;1.58;;;;;;;;;;5092789;28;20031;-39
2024/03/11 06:25:47;;;;;;;3.20;1.60;;;;;;;;;;5092870;28;20056;-39
2024/03/11 06:28:16;;;;;;;2.95;1.40;;;;;;;;;;5092506;28;20497;-38
2024/03/11 06:30:46;;;;;;;2.45;1.38;;;;;;;;;;5092487;28;20067;-38
2024/03/11 06:33:13;;;;;;;1.85;1.33;;;;;;;;;;5092195;28;20039;-37
2024/03/11 06:35:40;;;;;;;2.35;1.40;;;;;;;;;;5092388;28;20036;-38
2024/03/11 06:38:07;;;;;;;1.98;1.30;;;;;;;;;;5092364;28;20077;-40
2024/03/11 06:40:34;;;;;;;2.13;1.13;;;;;;;;;;5092409;28;20032;-40
2024/03/11 06:43:01;;;;;;;1.42;1.15;;;;;;;;;;5092003;28;20496;-39
2024/03/11 06:45:29;;;;;;;2.72;1.20;;;;;;;;;;5092163;28;20047;-42
2024/03/11 06:47:56;;;;;;;2.22;1.30;;;;;;;;;;5092312;28;20032;-40
2024/03/11 06:50:23;;;;;;;1.55;1.10;;;;;;;;;;5092001;28;20032;-39
2024/03/11 06:52:50;;;;;;;1.92;1.30;;;;;;;;;;5092170;28;20082;-41
2024/03/11 06:55:18;;;;;;;3.00;1.30;;;;;;;;;;5090809;28;20028;-38
2024/03/11 06:57:45;;;;;;;1.77;1.33;;;;;;;;;;5092165;28;20052;-38
2024/03/11 07:00:18;;;;;;;2.70;1.50;;;;;;;;;;5091689;28;20051;-38
2024/03/11 07:02:46;;;;;;;1.70;1.27;;;;;;;;;;5092086;28;20047;-38
2024/03/11 07:05:17;;;;;;;2.15;1.30;;;;;;;;;;5091935;28;20110;-38
2024/03/11 07:07:45;;;;;;;2.42;1.40;;;;;;;;;;5091839;28;20560;-38
2024/03/11 07:10:14;;;;;;;2.80;1.20;;;;;;;;;;5091969;28;20478;-38
2024/03/11 07:12:42;;;;;;;2.55;1.52;;;;;;;;;;5091735;28;20047;-39
2024/03/11 07:15:10;;;;;;;1.88;1.15;;;;;;;;;;5091543;28;20032;-38
2024/03/11 07:17:37;;;;;;;1.20;1.10;;;;;;;;;;5091666;28;20501;-37
2024/03/11 07:20:07;;;;;;;1.20;1.08;;;;;;;;;;5091730;28;20038;-38
2024/03/11 07:22:35;;;;;;;1.73;1.13;;;;;;;;;;5091668;28;20035;-38
2024/03/11 07:25:03;;;;;;;1.50;1.30;;;;;;;;;;5091570;28;20023;-39
2024/03/11 07:27:30;;;;;;;1.83;1.25;;;;;;;;;;5091586;28;20032;-37
2024/03/11 07:29:57;;;;;;;1.83;1.20;;;;;;;;;;5091614;28;20512;-38
2024/03/11 07:32:25;;;;;;;2.72;1.20;;;;;;;;;;5091641;28;20505;-38
2024/03/11 07:34:51;;;;;;;1.98;1.00;;;;;;;;;;5091359;28;20024;-37
2024/03/11 07:37:19;;;;;;;1.73;1.00;;;;;;;;;;5091618;28;20032;-39
2024/03/11 07:39:46;;;;;;;1.88;1.10;;;;;;;;;;5090175;28;20043;-40
2024/03/11 07:42:13;;;;;;;1.80;1.23;;;;;;;;;;5091539;28;20024;-40
2024/03/11 07:44:40;;;;;;;1.55;1.05;;;;;;;;;;5091497;28;20103;-43
2024/03/11 07:47:07;;;;;;;1.95;1.35;;;;;;;;;;5091256;28;20056;-39
2024/03/11 07:49:35;;;;;;;1.67;1.30;;;;;;;;;;5091232;28;20059;-40
2024/03/11 07:52:03;;;;;;;1.48;1.10;;;;;;;;;;5091381;28;20095;-39
2024/03/11 07:54:30;;;;;;;1.73;1.23;;;;;;;;;;5091164;28;20032;-41
2024/03/11 07:56:57;;;;;;;2.20;1.20;;;;;;;;;;5091780;28;20028;-39
2024/03/11 07:59:25;;;;;;;3.33;1.10;;;;;;;;;;5095364;28;20445;-39
2024/03/11 08:01:52;;;;;;;1.38;1.00;;;;;;;;;;5095103;28;20109;-40
2024/03/11 08:04:19;;;;;;;2.17;1.05;;;;;;;;;;5095297;28;20028;-39
2024/03/11 08:06:46;;;;;;;1.55;0.98;;;;;;;;;;5095348;28;20398;-38
2024/03/11 08:09:14;;;;;;;1.67;1.00;;;;;;;;;;5076752;28;20453;-37
2024/03/11 08:11:41;;;;;;;2.42;1.23;;;;;;;;;;5095259;28;20043;-39
2024/03/11 08:14:10;;;;;;;1.20;1.08;;;;;;;;;;5095160;28;20442;-38
2024/03/11 08:16:39;;;;;;;2.97;1.02;;;;;;;;;;5095195;28;20393;-38
2024/03/11 08:19:06;;;;;;;1.60;1.10;;;;;;;;;;5094916;28;20028;-38
2024/03/11 08:21:33;;;;;;;1.73;1.00;;;;;;;;;;5095243;28;20027;-39
2024/03/11 08:24:00;;;;;;;1.40;1.08;;;;;;;;;;5095048;28;20024;-39
2024/03/11 08:26:30;;;;;;;1.60;1.02;;;;;;;;;;5093914;28;20441;-41
2024/03/11 08:28:57;;;;;;;1.63;1.10;;;;;;;;;;5094626;28;20105;-39
2024/03/11 08:31:25;;;;;;;2.25;1.00;;;;;;;;;;5094801;28;20032;-40
2024/03/11 08:33:52;;;;;;;1.88;0.93;;;;;;;;;;5094553;28;20036;-39
2024/03/11 08:36:19;;;;;;;2.13;1.00;;;;;;;;;;5095062;28;20354;-40
2024/03/11 08:38:47;;;;;;;1.30;1.10;;;;;;;;;;5094639;28;20039;-40
2024/03/11 08:41:14;;;;;;;2.13;0.90;;;;;;;;;;5094397;28;20036;-40
2024/03/11 08:43:41;;;;;;;1.40;0.93;;;;;;;;;;5094553;28;20046;-40
2024/03/11 08:46:11;;;;;;;1.85;1.20;;;;;;;;;;5094788;28;20027;-39
2024/03/11 08:48:38;;;;;;;2.05;1.17;;;;;;;;;;5094130;28;20032;-39
2024/03/11 08:51:05;;;;;;;1.27;1.00;;;;;;;;;;5094480;28;20024;-39
2024/03/11 08:53:32;;;;;;;2.33;1.10;;;;;;;;;;5094625;28;20089;-40
2024/03/11 08:56:01;;;;;;;1.80;1.00;;;;;;;;;;5094537;28;20106;-40
2024/03/11 08:58:28;;;;;;;2.25;1.20;;;;;;;;;;5094270;28;20035;-39
2024/03/11 09:00:55;;;;;;;1.85;0.93;;;;;;;;;;5093748;28;20036;-40
2024/03/11 09:03:23;;;;;;;2.45;1.10;;;;;;;;;;5094129;28;20040;-39
2024/03/11 09:05:50;;;;;;;1.05;0.85;;;;;;;;;;5094272;28;20458;-39
2024/03/11 09:08:18;;;;;;;0.98;0.80;;;;;;;;;;5093390;28;20103;-38
2024/03/11 09:10:45;;;;;;;1.15;0.90;;;;;;;;;;5093646;28;20032;-40
2024/03/11 09:13:12;;;;;;;1.65;1.02;;;;;;;;;;5093144;28;20389;-38
2024/03/11 09:15:39;;;;;;;1.10;0.90;;;;;;;;;;5094027;28;20035;-38
2024/03/11 09:18:06;;;;;;;0.80;0.80;;;;;;;;;;5093958;28;20103;-38
2024/03/11 09:20:33;;;;;;;1.23;0.90;;;;;;;;;;5093840;28;20032;-37
2024/03/11 09:23:01;;;;;;;1.08;0.80;;;;;;;;;;5093849;28;20105;-37
2024/03/11 09:25:30;;;;;;;3.83;1.10;;;;;;;;;;5093681;28;20039;-38
2024/03/11 09:28:01;;;;;;;2.30;0.63;;;;;;;;;;5093467;28;20043;-37
2024/03/11 09:30:32;;;;;;;2.15;1.20;;;;;;;;;;5093671;28;20393;-38
2024/03/11 09:32:59;;;;;;;2.67;1.40;;;;;;;;;;5093530;28;20036;-37
2024/03/11 09:35:28;;;;;;;1.25;1.05;;;;;;;;;;5093461;28;20028;-38
2024/03/11 09:37:56;;;;;;;1.85;1.13;;;;;;;;;;5093332;28;20093;-40
2024/03/11 09:40:23;;;;;;;2.63;1.20;;;;;;;;;;5093643;28;20561;-38
2024/03/11 09:42:54;;;;;;;3.40;1.20;;;;;;;;;;5093433;28;20064;-43
2024/03/11 09:45:22;;;;;;;1.50;1.15;;;;;;;;;;5093250;28;20443;-40
2024/03/11 09:47:56;;;;;;;0.93;0.90;;;;;;;;;;5093159;28;20044;-39
2024/03/11 09:50:27;;;;;;;2.25;1.30;;;;;;;;;;5093449;28;20568;-40
2024/03/11 09:53:03;;;;;;;2.10;1.10;;;;;;;;;;5093071;28;20114;-41
2024/03/11 09:55:31;;;;;;;2.78;0.88;;;;;;;;;;5093226;28;20078;-39
2024/03/11 09:58:00;;;;;;;1.67;1.00;;;;;;;;;;5091575;28;20067;-37
2024/03/11 10:00:27;;;;;;;2.05;1.15;;;;;;;;;;5092985;28;20086;-38
2024/03/11 10:03:02;;;;;;;1.55;1.00;;;;;;;;;;5092894;28;20644;-39
2024/03/11 10:05:34;;;;;;;1.48;0.82;;;;;;;;;;5092891;28;20055;-38
2024/03/11 10:08:01;;;;;;;1.40;1.10;;;;;;;;;;5092783;28;20499;-42
2024/03/11 10:10:29;;;;;;;1.88;0.95;;;;;;;;;;5092737;28;21496;-39
2024/03/11 10:12:58;;;;;;;1.48;1.00;;;;;;;;;;5092710;28;20028;-39
2024/03/11 10:15:32;;;;;;;1.13;1.00;;;;;;;;;;5092776;28;20043;-39
2024/03/11 10:18:27;;;;;;;1.98;1.10;;;;;;;;;;5092888;28;20111;-39
2024/03/11 10:20:58;;;;;;;2.00;1.27;;;;;;;;;;5091997;28;20032;-40
2024/03/11 10:23:29;;;;;;;1.40;0.98;;;;;;;;;;5092648;28;20558;-39
2024/03/11 10:29:07;;;;;;;1.88;0.98;;;;;;;;;;5074237;28;20087;-38
2024/03/11 10:31:35;;;;;;;1.33;1.00;;;;;;;;;;5093077;28;20024;-39
2024/03/11 10:34:21;;;;;;;1.40;0.90;;;;;;;;;;5092731;28;20102;-39
2024/03/11 10:36:55;;;;;;;1.45;1.00;;;;;;;;;;5092629;28;20080;-39
2024/03/11 10:41:50;;;;;;;2.78;1.20;;;;;;;;;;5100732;28;20032;-39
2024/03/11 10:44:29;;;;;;;1.15;0.95;;;;;;;;;;5098218;28;20508;-39
2024/03/11 10:47:02;;;;;;;1.20;0.90;;;;;;;;;;5098890;28;20035;-38
2024/03/11 10:49:29;;;;;;;2.85;1.10;;;;;;;;;;5100719;28;20028;-39
2024/03/11 10:52:06;;;;;;;2.25;1.10;;;;;;;;;;5102446;28;20428;-39
2024/03/11 10:54:38;;;;;;;1.65;1.10;;;;;;;;;;5098147;28;20027;-39
2024/03/11 10:57:11;;;;;;;1.52;1.23;;;;;;;;;;5100795;28;20501;-39
2024/03/11 10:59:41;;;;;;;2.10;1.23;;;;;;;;;;5099242;28;20478;-38
2024/03/11 11:02:12;;;;;;;1.63;1.13;;;;;;;;;;5073744;28;20112;-39
2024/03/11 11:04:40;;;;;;;3.08;1.17;;;;;;;;;;5091921;28;20024;-39
2024/03/11 11:07:08;;;;;;;1.80;1.20;;;;;;;;;;5091766;28;20039;-39
2024/03/11 11:09:36;;;;;;;3.05;1.30;;;;;;;;;;5092130;28;20124;-39
2024/03/11 11:12:03;;;;;;;1.75;1.27;;;;;;;;;;5092050;28;20020;-40
2024/03/11 11:14:30;;;;;;;3.03;1.20;;;;;;;;;;5091826;28;20035;-38
2024/03/11 11:16:57;;;;;;;2.45;1.42;;;;;;;;;;5084279;28;20043;-39
2024/03/11 11:19:31;;;;;;;1.70;1.38;;;;;;;;;;5091135;28;20020;-36
2024/03/11 11:21:59;;;;;;;2.33;1.27;;;;;;;;;;5089197;28;20028;-38
2024/03/11 11:24:30;;;;;;;2.72;1.40;;;;;;;;;;5090864;28;20061;-39
2024/03/11 11:27:01;;;;;;;3.30;1.30;;;;;;;;;;5079811;28;20055;-40
2024/03/11 11:29:29;;;;;;;3.35;1.33;;;;;;;;;;5089774;28;20501;-39
2024/03/11 11:32:03;;;;;;;4.88;1.52;;;;;;;;;;5090047;28;20455;-38
2024/03/11 11:34:45;;;;;;;8.85;1.90;;;;;;;;;;5088603;28;20101;-38
2024/03/11 11:37:13;;;;;;;6.82;1.77;;;;;;;;;;5069754;28;20032;-39
2024/03/11 11:39:42;;;;;;;3.08;1.63;;;;;;;;;;5089901;28;20035;-38
2024/03/11 11:42:39;;;;;;;2.42;1.30;;;;;;;;;;5088528;28;20393;-39
2024/03/11 11:45:06;;;;;;;4.90;1.75;;;;;;;;;;5070213;28;20598;-38
2024/03/11 11:47:35;;;;;;;3.30;1.73;;;;;;;;;;5091141;28;20469;-38
2024/03/11 11:50:02;;;;;;;5.20;1.98;;;;;;;;;;5088833;28;20113;-39
2024/03/11 11:52:29;;;;;;;6.18;2.00;;;;;;;;;;5090670;28;20094;-38
2024/03/11 11:54:57;;;;;;;2.80;1.70;;;;;;;;;;5090836;28;20032;-39
2024/03/11 11:57:25;;;;;;;3.10;1.58;;;;;;;;;;5090954;28;20039;-39
2024/03/11 11:59:55;;;;;;;3.08;1.77;;;;;;;;;;5089375;28;20094;-39
2024/03/11 12:02:23;;;;;;;4.13;1.80;;;;;;;;;;5091322;28;20101;-38
2024/03/11 12:04:54;;;;;;;5.45;2.00;;;;;;;;;;5090731;28;20028;-38
2024/03/11 12:07:25;;;;;;;3.97;1.60;;;;;;;;;;5091127;28;20044;-38
2024/03/11 12:10:04;;;;;;;3.67;2.08;;;;;;;;;;5091041;28;20028;-39
2024/03/11 12:12:39;;;;;;;4.63;2.00;;;;;;;;;;5091232;28;20024;-39
2024/03/11 12:15:06;;;;;;;3.40;1.50;;;;;;;;;;5089801;28;20039;-39
2024/03/11 12:17:33;;;;;;;5.72;1.75;;;;;;;;;;5091344;28;20497;-39
2024/03/11 12:20:30;;;;;;;5.95;1.90;;;;;;;;;;5073006;28;20089;-39
2024/03/11 12:23:03;;;;;;;2.72;1.55;;;;;;;;;;5091101;28;20062;-38
2024/03/11 12:25:36;;;;;;;3.95;1.65;;;;;;;;;;5091095;28;20070;-39
2024/03/11 12:28:09;;;;;;;2.60;1.58;;;;;;;;;;5091003;28;20438;-39
2024/03/11 12:30:38;;;;;;;3.03;2.22;;;;;;;;;;5073037;28;20397;-38
2024/03/11 12:33:05;;;;;;;5.53;2.50;;;;;;;;;;5091077;28;20153;-38
2024/03/11 12:35:33;;;;;;;3.15;1.90;;;;;;;;;;5090719;28;20076;-38
2024/03/11 12:38:03;;;;;;;3.97;1.90;;;;;;;;;;5091048;28;20028;-39
2024/03/11 12:41:04;;;;;;;3.88;2.15;;;;;;;;;;5091079;28;20024;-39
2024/03/11 12:43:35;;;;;;;5.05;1.77;;;;;;;;;;5088150;28;20109;-39
2024/03/11 12:46:05;;;;;;;2.92;1.70;;;;;;;;;;5094351;28;20036;-40
2024/03/11 12:48:33;;;;;;;2.70;1.73;;;;;;;;;;5094648;28;20557;-39
2024/03/11 12:51:04;;;;;;;4.28;1.77;;;;;;;;;;5094401;28;20122;-39
2024/03/11 12:53:33;;;;;;;2.45;1.60;;;;;;;;;;5094355;28;20039;-39
2024/03/11 12:56:03;;;;;;;3.65;2.28;;;;;;;;;;5094421;28;20497;-39
2024/03/11 12:58:33;;;;;;;3.17;2.10;;;;;;;;;;5085692;28;20040;-39
2024/03/11 13:01:09;;;;;;;4.05;2.00;;;;;;;;;;5092657;28;20781;-39
2024/03/11 13:03:39;;;;;;;3.47;2.10;;;;;;;;;;5094361;28;20025;-39
2024/03/11 13:06:09;;;;;;;3.72;2.40;;;;;;;;;;5094339;28;20489;-40
2024/03/11 13:08:41;;;;;;;5.75;3.10;;;;;;;;;;5093964;28;20112;-40
2024/03/11 13:11:08;;;;;;;2.55;2.30;;;;;;;;;;5094125;28;20043;-39
2024/03/11 13:13:36;;;;;;;3.65;2.55;;;;;;;;;;5094265;28;20055;-40
2024/03/11 13:16:06;;;;;;;4.82;2.80;;;;;;;;;;5094290;28;20032;-39
2024/03/11 13:18:33;;;;;;;3.50;2.28;;;;;;;;;;5093877;28;20063;-39
2024/03/11 13:21:07;;;;;;;6.93;2.88;;;;;;;;;;5093884;28;20497;-39
2024/03/11 13:23:37;;;;;;;4.40;2.53;;;;;;;;;;5076986;28;20053;-40
2024/03/11 13:26:11;;;;;;;3.58;2.72;;;;;;;;;;5094065;28;20028;-39
2024/03/11 13:28:38;;;;;;;5.35;2.95;;;;;;;;;;5093367;28;20379;-40
2024/03/11 13:31:08;;;;;;;4.47;2.17;;;;;;;;;;5093652;28;20489;-40
2024/03/11 13:33:41;;;;;;;6.60;2.60;;;;;;;;;;5093568;28;20040;-39
2024/03/11 13:36:08;;;;;;;3.78;2.70;;;;;;;;;;5075534;28;20393;-39
2024/03/11 13:38:36;;;;;;;4.22;2.65;;;;;;;;;;5093692;28;20042;-38
2024/03/11 13:41:03;;;;;;;5.32;2.42;;;;;;;;;;5093622;28;20024;-40
2024/03/11 13:43:32;;;;;;;4.70;2.70;;;;;;;;;;5093796;28;20512;-39
2024/03/11 13:46:03;;;;;;;3.50;2.40;;;;;;;;;;5093500;28;20106;-39
2024/03/11 13:48:33;;;;;;;2.75;2.40;;;;;;;;;;5092429;28;20047;-39
2024/03/11 13:51:00;;;;;;;5.05;2.30;;;;;;;;;;5093364;28;20039;-40
2024/03/11 13:53:28;;;;;;;2.53;2.20;;;;;;;;;;5093436;28;20027;-39
2024/03/11 13:55:55;;;;;;;3.25;2.10;;;;;;;;;;5092489;28;20020;-39
2024/03/11 13:58:24;;;;;;;3.22;2.20;;;;;;;;;;5093401;28;20381;-39
2024/03/11 14:00:51;;;;;;;3.55;2.10;;;;;;;;;;5093102;28;20055;-39
2024/03/11 14:03:19;;;;;;;4.18;2.30;;;;;;;;;;5093155;28;20500;-37
2024/03/11 14:05:46;;;;;;;3.42;2.00;;;;;;;;;;5093154;28;20031;-38
2024/03/11 14:08:13;;;;;;;2.72;2.00;;;;;;;;;;5092871;28;20070;-39
2024/03/11 14:10:48;;;;;;;3.05;1.80;;;;;;;;;;5093116;28;20453;-40
2024/03/11 14:13:17;;;;;;;3.33;2.17;;;;;;;;;;5092549;28;20063;-39
2024/03/11 14:15:44;;;;;;;2.85;1.90;;;;;;;;;;5092757;28;20028;-40
2024/03/11 14:18:11;;;;;;;3.20;1.75;;;;;;;;;;5092758;28;20028;-39
2024/03/11 14:20:38;;;;;;;2.83;1.67;;;;;;;;;;5092704;28;20031;-40
2024/03/11 14:23:06;;;;;;;1.67;1.35;;;;;;;;;;5092806;28;20506;-40
2024/03/11 14:25:33;;;;;;;3.55;1.55;;;;;;;;;;5092768;28;20102;-39
2024/03/11 14:28:00;;;;;;;3.22;1.80;;;;;;;;;;5092610;28;20024;-40
2024/03/11 14:30:30;;;;;;;2.72;1.70;;;;;;;;;;5092665;28;20047;-40
2024/03/11 14:32:57;;;;;;;3.92;1.67;;;;;;;;;;5091178;28;20166;-38
2024/03/11 14:35:27;;;;;;;2.13;1.60;;;;;;;;;;5092801;28;20095;-38
2024/03/11 14:37:58;;;;;;;3.08;1.67;;;;;;;;;;5092433;28;20024;-38
2024/03/11 14:40:31;;;;;;;2.85;1.73;;;;;;;;;;5092427;28;20020;-38
2024/03/11 14:42:58;;;;;;;2.78;1.80;;;;;;;;;;5092396;28;20103;-38
2024/03/11 14:45:26;;;;;;;2.83;1.63;;;;;;;;;;5092455;28;20016;-38
2024/03/11 14:47:53;;;;;;;1.92;1.52;;;;;;;;;;5092423;28;20481;-38
2024/03/11 14:50:20;;;;;;;1.58;1.48;;;;;;;;;;5092259;28;20040;-38
2024/03/11 14:52:47;;;;;;;3.38;1.50;;;;;;;;;;5092503;28;20027;-39
2024/03/11 14:55:14;;;;;;;2.67;1.58;;;;;;;;;;5092079;28;20501;-38
2024/03/11 14:57:42;;;;;;;3.33;1.90;;;;;;;;;;5092046;28;20024;-39